Time;durP1;ratioP1;P1;durP2;ratioP2;P2;SDS_P1;SDS_P2;PMS_P1;PMS_P2;Temp;Humidity;BMP_temperature;BMP_pressure;BME280_temperature;BME280_humidity;BME280_pressure;Samples;Min_cycle;Max_cycle;Signal;HPM_P1;HPM_P2
2022/01/16 00:00:26;;;;;;;;;;;;;;;2.06;90.30;101237.47;4962771;28;1432;-87
2022/01/16 00:05:23;;;;;;;;;;;;;;;2.06;90.54;101240.16;4965097;28;1624;-87
2022/01/16 00:07:48;;;;;;;;;;;;;;;2.06;90.52;101240.16;4962311;28;1662;-87
2022/01/16 00:10:16;;;;;;;;;;;;;;;2.10;90.71;101227.94;4962473;28;1378;-87
2022/01/16 00:12:47;;;;;;;;;;;;;;;2.10;90.70;101211.72;4958440;29;935;-88
2022/01/16 00:15:12;;;;;;;;;;;;;;;2.04;90.18;101216.06;4956023;29;1262;-87
2022/01/16 00:17:48;;;;;;;;;;;;;;;2.07;90.35;101209.44;4956897;29;1902;-87
2022/01/16 00:20:13;;;;;;;;;;;;;;;2.06;90.09;101216.69;4956890;29;1376;-87
2022/01/16 00:22:41;;;;;;;;;;;;;;;1.97;90.32;101217.94;4956561;29;1125;-86
2022/01/16 00:25:06;;;;;;;;;;;;;;;2.01;90.46;101213.81;4956983;29;1374;-87
2022/01/16 00:27:31;;;;;;;;;;;;;;;2.00;90.14;101219.41;4957132;29;1238;-87
2022/01/16 00:29:56;;;;;;;;;;;;;;;1.96;90.59;101220.88;4957958;28;1382;-87
2022/01/16 00:32:21;;;;;;;;;;;;;;;2.02;90.07;101204.66;4956569;29;729;-87
2022/01/16 00:34:47;;;;;;;;;;;;;;;2.01;90.57;101210.28;4973296;28;1320;-87
2022/01/16 00:37:12;;;;;;;;;;;;;;;1.96;90.37;101210.88;4972414;28;1867;-87
2022/01/16 00:39:37;;;;;;;;;;;;;;;1.96;90.34;101215.47;4957128;29;1289;-87
2022/01/16 00:42:02;;;;;;;;;;;;;;;1.98;90.38;101203.41;4978994;28;1851;-87
2022/01/16 00:44:27;;;;;;;;;;;;;;;2.03;89.99;101194.69;4989787;28;1558;-87
2022/01/16 00:46:52;;;;;;;;;;;;;;;1.98;90.10;101186.38;4975613;29;1192;-87
2022/01/16 00:49:18;;;;;;;;;;;;;;;1.95;90.30;101179.53;4968329;28;1304;-87
2022/01/16 00:51:43;;;;;;;;;;;;;;;1.98;89.99;101179.09;4954844;29;1821;-87
2022/01/16 00:54:08;;;;;;;;;;;;;;;1.98;90.40;101180.97;4955221;29;1224;-87
2022/01/16 00:56:33;;;;;;;;;;;;;;;1.88;90.35;101187.63;4954995;29;1241;-86
2022/01/16 00:58:58;;;;;;;;;;;;;;;1.93;90.39;101191.56;4954955;29;1954;-87
2022/01/16 01:01:23;;;;;;;;;;;;;;;1.90;90.20;101184.72;4956276;28;1529;-87
2022/01/16 01:03:49;;;;;;;;;;;;;;;1.95;90.04;101165.22;4954583;29;886;-87
2022/01/16 01:06:14;;;;;;;;;;;;;;;1.95;90.60;101170.63;4954618;29;1314;-87
2022/01/16 01:08:40;;;;;;;;;;;;;;;1.89;89.91;101154.19;4958183;28;1226;-87
2022/01/16 01:11:10;;;;;;;;;;;;;;;1.91;90.28;101164.78;4972968;28;1285;-87
2022/01/16 01:13:55;;;;;;;;;;;;;;;1.94;90.43;101148.19;4956490;28;1336;-87
2022/01/16 01:16:20;;;;;;;;;;;;;;;1.95;90.25;101141.75;4974930;28;1314;-87
2022/01/16 01:18:45;;;;;;;;;;;;;;;1.95;90.15;101143.63;4973813;28;1949;-87
2022/01/16 01:21:24;;;;;;;;;;;;;;;1.96;90.46;101139.88;4973880;28;1208;-87
2022/01/16 01:23:49;;;;;;;;;;;;;;;1.88;90.10;101149.81;4959980;28;1867;-87
2022/01/16 01:26:14;;;;;;;;;;;;;;;1.88;89.92;101159.78;4986679;28;1417;-86
2022/01/16 01:28:39;;;;;;;;;;;;;;;1.92;90.13;101155.66;4973431;28;1202;-87
2022/01/16 01:31:04;;;;;;;;;;;;;;;1.87;89.93;101174.34;4973486;28;990;-87
2022/01/16 01:33:29;;;;;;;;;;;;;;;1.87;90.41;101175.16;4973437;28;1511;-86
2022/01/16 01:35:55;;;;;;;;;;;;;;;1.80;90.03;101174.31;4973405;28;1042;-87
2022/01/16 01:38:20;;;;;;;;;;;;;;;1.81;90.27;101150.88;4957884;28;1945;-87
2022/01/16 01:40:48;;;;;;;;;;;;;;;1.78;90.04;101090.06;4954279;29;1194;-86
2022/01/16 01:51:13;;;;;;;;;;;;;;;1.82;90.48;101064.28;4965361;28;1479;-87
2022/01/16 01:53:38;;;;;;;;;;;;;;;1.86;90.17;101081.75;4974458;28;871;-87
2022/01/16 01:56:05;;;;;;;;;;;;;;;1.88;90.48;101097.69;4973243;28;1284;-88
2022/01/16 01:58:30;;;;;;;;;;;;;;;1.80;89.95;101106.00;4973094;28;1957;-87
2022/01/16 02:00:55;;;;;;;;;;;;;;;1.76;90.40;101112.88;4972243;28;1411;-87
2022/01/16 02:05:51;;;;;;;;;;;;;;;1.75;90.29;101116.63;4981461;28;875;-87
2022/01/16 02:08:17;;;;;;;;;;;;;;;1.78;89.94;101118.91;4976635;28;1344;-87
2022/01/16 02:10:42;;;;;;;;;;;;;;;1.71;90.11;101126.97;4960213;28;1859;-87
2022/01/16 02:13:10;;;;;;;;;;;;;;;1.61;90.38;101115.78;4960066;29;1222;-86
2022/01/16 02:31:59;;;;;;;;;;;;;;;1.69;90.35;101110.19;4961686;29;871;-87
2022/01/16 02:34:37;;;;;;;;;;;;;;;1.61;90.67;101113.09;4961547;28;1806;-86
2022/01/16 02:37:07;;;;;;;;;;;;;;;1.64;90.53;101114.53;4960254;29;1953;-87
2022/01/16 02:39:37;;;;;;;;;;;;;;;1.68;90.49;101099.59;4972675;28;1924;-87
2022/01/16 02:42:03;;;;;;;;;;;;;;;1.64;90.54;101104.56;4979248;28;1205;-87
2022/01/16 02:46:55;;;;;;;;;;;;;;;1.66;90.63;101091.72;4980931;28;982;-86
2022/01/16 02:49:21;;;;;;;;;;;;;;;1.71;90.54;101082.97;4979296;28;1383;-87
2022/01/16 02:51:46;;;;;;;;;;;;;;;1.74;90.39;101074.47;4980508;28;1009;-87
2022/01/16 02:54:11;;;;;;;;;;;;;;;1.76;90.26;101062.44;4963482;28;1650;-87
2022/01/16 02:56:38;;;;;;;;;;;;;;;1.67;90.57;101066.38;4959980;29;1226;-86
2022/01/16 02:59:03;;;;;;;;;;;;;;;1.75;90.62;101068.03;4961445;28;1964;-87
2022/01/16 03:01:28;;;;;;;;;;;;;;;1.77;90.15;101069.50;4969094;28;1657;-87
2022/01/16 03:03:54;;;;;;;;;;;;;;;1.71;90.45;101072.19;4980426;28;986;-88
2022/01/16 03:06:19;;;;;;;;;;;;;;;1.60;89.93;101056.63;4979033;28;1189;-87
2022/01/16 03:08:44;;;;;;;;;;;;;;;1.57;90.27;101060.56;4979082;28;1211;-87
2022/01/16 03:11:21;;;;;;;;;;;;;;;1.58;89.96;101056.00;4973207;28;1878;-87
2022/01/16 03:13:48;;;;;;;;;;;;;;;1.46;90.24;101043.13;4957635;28;1321;-87
2022/01/16 03:16:18;;;;;;;;;;;;;;;1.50;90.36;101022.81;4956558;29;1909;-87
2022/01/16 03:24:11;;;;;;;;;;;;;;;1.57;90.18;101016.56;4977500;28;1128;-87
2022/01/16 03:26:36;;;;;;;;;;;;;;;1.60;90.05;101017.00;4978767;28;886;-88
2022/01/16 03:29:01;;;;;;;;;;;;;;;1.55;90.24;101019.47;4976471;28;1270;-87
2022/01/16 03:31:26;;;;;;;;;;;;;;;1.56;90.33;101033.78;4976099;28;1198;-87
2022/01/16 03:33:51;;;;;;;;;;;;;;;1.64;90.14;101026.31;4975836;28;1256;-87
2022/01/16 03:36:17;;;;;;;;;;;;;;;1.59;90.07;101025.28;4975717;28;1436;-87
2022/01/16 03:38:42;;;;;;;;;;;;;;;1.56;90.03;101023.00;4966291;28;1902;-87
2022/01/16 03:41:08;;;;;;;;;;;;;;;1.52;90.06;101026.13;4956627;29;880;-86
2022/01/16 03:43:33;;;;;;;;;;;;;;;1.42;89.72;101032.97;4956305;29;1261;-86
2022/01/16 03:45:59;;;;;;;;;;;;;;;1.46;90.03;101031.50;4956632;29;979;-86
2022/01/16 03:48:25;;;;;;;;;;;;;;;1.40;89.91;101021.56;4956350;29;1297;-87
2022/01/16 03:50:50;;;;;;;;;;;;;;;1.39;90.08;101011.81;4956475;29;1361;-87
2022/01/16 03:53:16;;;;;;;;;;;;;;;1.45;89.70;101010.97;4956353;29;1810;-87
2022/01/16 03:55:41;;;;;;;;;;;;;;;1.49;89.84;101018.44;4956203;29;1214;-87
2022/01/16 03:58:06;;;;;;;;;;;;;;;1.43;89.91;101010.38;4956821;29;1957;-87
2022/01/16 04:00:32;;;;;;;;;;;;;;;1.42;89.57;101032.97;4956387;29;1303;-87
2022/01/16 04:02:57;;;;;;;;;;;;;;;1.46;89.66;101047.69;4957366;29;828;-87
2022/01/16 04:05:22;;;;;;;;;;;;;;;1.35;89.71;101083.41;4956405;29;1213;-86
2022/01/16 04:07:48;;;;;;;;;;;;;;;1.27;89.70;101079.03;4957784;29;796;-87
2022/01/16 04:10:13;;;;;;;;;;;;;;;1.38;89.91;101078.41;4962408;28;1349;-87
2022/01/16 04:12:39;;;;;;;;;;;;;;;1.33;89.65;101061.19;4976541;28;1080;-87
2022/01/16 04:17:37;;;;;;;;;;;;;;;1.51;89.62;101075.72;4973241;28;1962;-87
2022/01/16 04:20:03;;;;;;;;;;;;;;;1.40;89.48;101076.34;4969132;28;1839;-88
2022/01/16 04:22:28;;;;;;;;;;;;;;;1.41;89.58;101078.00;4974781;28;1162;-87
2022/01/16 04:24:53;;;;;;;;;;;;;;;1.38;89.43;101077.56;4975180;28;1240;-87
2022/01/16 04:27:18;;;;;;;;;;;;;;;1.39;89.56;101073.84;4975802;28;1277;-87
2022/01/16 04:29:43;;;;;;;;;;;;;;;1.38;89.38;101083.78;4975261;28;1318;-87
2022/01/16 04:32:09;;;;;;;;;;;;;;;1.42;89.32;101079.66;4976591;28;918;-87
2022/01/16 04:34:34;;;;;;;;;;;;;;;1.35;89.32;101078.84;4975415;28;1238;-87
2022/01/16 04:36:59;;;;;;;;;;;;;;;1.40;89.50;101086.28;4961242;28;2138;-87
2022/01/16 04:39:31;;;;;;;;;;;;;;;1.45;89.51;101094.59;4967506;28;1949;-87
2022/01/16 04:44:41;;;;;;;;;;;;;;;1.50;89.52;101094.81;4957060;29;606;-89
2022/01/16 04:47:06;;;;;;;;;;;;;;;1.57;89.10;101084.84;4955728;29;1281;-90
2022/01/16 04:49:32;;;;;;;;;;;;;;;1.62;89.29;101095.00;4955180;29;1344;-88
2022/01/16 04:51:57;;;;;;;;;;;;;;;1.64;89.32;101088.38;4939932;29;1230;-89
2022/01/16 04:54:22;;;;;;;;;;;;;;;1.66;88.98;101080.91;4936019;29;1296;-90
2022/01/16 04:56:47;;;;;;;;;;;;;;;1.63;89.30;101080.47;4937245;29;1337;-89
2022/01/16 04:59:13;;;;;;;;;;;;;;;1.65;89.11;101075.72;4936320;29;1923;-89
2022/01/16 05:01:38;;;;;;;;;;;;;;;1.61;89.12;101072.63;4936862;29;1352;-89
2022/01/16 05:04:03;;;;;;;;;;;;;;;1.49;88.94;101075.09;4950749;29;1807;-89
2022/01/16 05:06:29;;;;;;;;;;;;;;;1.54;88.99;101063.69;4954813;29;1851;-88
2022/01/16 05:08:54;;;;;;;;;;;;;;;1.56;88.96;101075.09;4955049;29;1367;-90
2022/01/16 05:11:24;;;;;;;;;;;;;;;1.56;89.11;101058.91;4954557;29;1175;-90
2022/01/16 05:19:00;;;;;;;;;;;;;;;1.58;89.04;101056.00;4955921;29;1887;-90
2022/01/16 05:21:25;;;;;;;;;;;;;;;1.57;88.81;101062.44;4954726;28;1323;-89
2022/01/16 05:23:50;;;;;;;;;;;;;;;1.58;88.87;101061.41;4966167;28;1919;-89
2022/01/16 05:26:24;;;;;;;;;;;;;;;1.62;88.78;101055.38;4954282;29;1634;-88
2022/01/16 05:28:49;;;;;;;;;;;;;;;1.56;89.00;101053.50;4955103;28;1312;-89
2022/01/16 05:31:14;;;;;;;;;;;;;;;1.59;89.11;101055.81;4954125;29;1190;-89
2022/01/16 05:33:40;;;;;;;;;;;;;;;1.66;88.88;101053.94;4955673;29;826;-89
2022/01/16 05:36:05;;;;;;;;;;;;;;;1.64;89.07;101064.09;4954035;28;1350;-89
2022/01/16 05:38:30;;;;;;;;;;;;;;;1.63;89.26;101054.34;4954349;29;1969;-89
2022/01/16 05:40:55;;;;;;;;;;;;;;;1.66;89.14;101042.31;4961985;28;1759;-88
2022/01/16 05:43:20;;;;;;;;;;;;;;;1.69;89.12;101050.81;4957413;28;1109;-89
2022/01/16 05:45:45;;;;;;;;;;;;;;;1.69;88.98;101040.03;4957621;28;1178;-88
2022/01/16 05:48:11;;;;;;;;;;;;;;;1.69;89.06;101050.81;4957651;28;1995;-89
2022/01/16 05:50:36;;;;;;;;;;;;;;;1.68;88.85;101057.25;4974667;28;1312;-89
2022/01/16 05:53:01;;;;;;;;;;;;;;;1.66;89.04;101055.78;4957230;28;1248;-88
2022/01/16 05:55:31;;;;;;;;;;;;;;;1.64;89.29;101066.78;4973684;28;1771;-88
2022/01/16 05:57:56;;;;;;;;;;;;;;;1.61;89.27;101067.22;4974688;28;1890;-89
2022/01/16 06:00:21;;;;;;;;;;;;;;;1.61;89.04;101071.78;4956732;28;1709;-89
2022/01/16 06:02:46;;;;;;;;;;;;;;;1.61;88.99;101067.22;4957326;28;1371;-89
2022/01/16 06:05:12;;;;;;;;;;;;;;;1.58;89.11;101062.25;4957228;28;1261;-89
2022/01/16 06:07:40;;;;;;;;;;;;;;;1.54;89.12;101060.97;4957040;28;1380;-89
2022/01/16 06:10:05;;;;;;;;;;;;;;;1.53;88.93;101051.25;4957088;28;1242;-89
2022/01/16 06:12:31;;;;;;;;;;;;;;;1.50;88.88;101047.09;4957387;28;1436;-90
2022/01/16 06:14:56;;;;;;;;;;;;;;;1.56;89.07;101047.28;4957341;28;1292;-89
2022/01/16 06:17:23;;;;;;;;;;;;;;;1.65;88.79;101040.63;4952145;29;1894;-90
2022/01/16 06:19:50;;;;;;;;;;;;;;;1.72;88.97;101042.28;4959625;28;1915;-90
2022/01/16 06:22:15;;;;;;;;;;;;;;;1.70;89.09;101025.47;4950220;28;1883;-90
2022/01/16 06:24:41;;;;;;;;;;;;;;;1.69;88.89;101023.84;4956461;28;1626;-90
2022/01/16 06:27:06;;;;;;;;;;;;;;;1.71;89.25;101029.84;4957823;28;1241;-90
2022/01/16 06:29:32;;;;;;;;;;;;;;;1.64;89.01;101017.41;4956775;28;1410;-90
2022/01/16 06:31:57;;;;;;;;;;;;;;;1.66;89.26;101016.16;4956892;28;1931;-90
2022/01/16 06:34:22;;;;;;;;;;;;;;;1.61;89.28;101024.06;4957247;28;1321;-90
2022/01/16 06:36:48;;;;;;;;;;;;;;;1.61;89.08;101032.16;4957178;28;1363;-89
2022/01/16 06:39:17;;;;;;;;;;;;;;;1.64;89.05;101023.63;4941128;28;1966;-90
2022/01/16 06:41:58;;;;;;;;;;;;;;;1.66;89.48;101029.66;4973589;28;1670;-91
2022/01/16 06:44:24;;;;;;;;;;;;;;;1.65;88.88;101024.44;4957098;28;1779;-90
2022/01/16 06:46:49;;;;;;;;;;;;;;;1.60;89.00;101033.19;4973453;28;1366;-89
2022/01/16 06:49:18;;;;;;;;;;;;;;;1.56;89.18;101025.69;4976808;28;1400;-89
2022/01/16 06:51:46;;;;;;;;;;;;;;;1.59;88.98;101019.91;4978185;28;1308;-90
2022/01/16 06:54:12;;;;;;;;;;;;;;;1.55;88.93;101021.34;4961011;28;1343;-89
2022/01/16 06:56:37;;;;;;;;;;;;;;;1.54;88.98;101023.22;4965304;28;1832;-90
2022/01/16 06:59:02;;;;;;;;;;;;;;;1.53;88.95;101027.78;4960442;28;1910;-89
2022/01/16 07:01:28;;;;;;;;;;;;;;;1.58;88.92;101032.56;4978109;28;1214;-89
2022/01/16 07:03:54;;;;;;;;;;;;;;;1.60;88.93;101040.44;4960935;28;1333;-90
2022/01/16 07:06:19;;;;;;;;;;;;;;;1.57;88.96;101041.69;4960521;28;827;-90
2022/01/16 07:08:44;;;;;;;;;;;;;;;1.57;88.80;101035.47;4960429;28;1189;-90
2022/01/16 07:11:10;;;;;;;;;;;;;;;1.59;88.87;101047.72;4960192;28;2015;-89
2022/01/16 07:13:35;;;;;;;;;;;;;;;1.63;88.71;101048.09;4976243;28;1324;-89
2022/01/16 07:16:00;;;;;;;;;;;;;;;1.63;88.97;101051.63;4975027;28;1722;-90
2022/01/16 07:18:26;;;;;;;;;;;;;;;1.62;88.85;101052.66;4960233;28;1979;-90
2022/01/16 07:20:51;;;;;;;;;;;;;;;1.63;88.53;101067.00;4960259;28;1355;-90
2022/01/16 07:23:17;;;;;;;;;;;;;;;1.59;88.46;101055.81;4977359;28;792;-89
2022/01/16 07:25:42;;;;;;;;;;;;;;;1.58;88.62;101064.09;4966823;28;1587;-90
2022/01/16 07:28:07;;;;;;;;;;;;;;;1.61;88.54;101064.53;4995646;28;1173;-88
2022/01/16 07:30:33;;;;;;;;;;;;;;;1.63;88.39;101077.78;4995245;28;1228;-90
2022/01/16 07:32:58;;;;;;;;;;;;;;;1.64;88.29;101076.75;4981227;28;1264;-91
2022/01/16 07:35:23;;;;;;;;;;;;;;;1.72;88.69;101076.53;4960131;28;1249;-92
2022/01/16 07:37:49;;;;;;;;;;;;;;;1.74;88.34;101079.88;4974694;28;1953;-91
2022/01/16 07:40:15;;;;;;;;;;;;;;;1.68;88.23;101076.16;4989750;28;1934;-92
2022/01/16 07:42:40;;;;;;;;;;;;;;;1.68;88.31;101083.41;4960177;28;1143;-91
2022/01/16 07:45:06;;;;;;;;;;;;;;;1.65;88.24;101083.81;4960308;28;1186;-91
2022/01/16 07:47:31;;;;;;;;;;;;;;;1.58;88.33;101097.31;4959908;28;1168;-91
2022/01/16 07:49:56;;;;;;;;;;;;;;;1.61;88.25;101102.31;4977204;28;1056;-92
2022/01/16 07:52:21;;;;;;;;;;;;;;;1.56;88.15;101098.53;4951134;28;1899;-91
2022/01/16 07:54:47;;;;;;;;;;;;;;;1.58;88.13;101096.47;4942575;28;1384;-91
2022/01/16 07:57:12;;;;;;;;;;;;;;;1.58;87.94;101109.97;4959588;28;1712;-90
2022/01/16 07:59:37;;;;;;;;;;;;;;;1.59;88.00;101101.66;4959306;28;1906;-91
2022/01/16 08:02:02;;;;;;;;;;;;;;;1.63;88.03;101105.59;4959665;28;1370;-91
2022/01/16 08:04:28;;;;;;;;;;;;;;;1.66;88.13;101102.50;4959845;28;1304;-92
2022/01/16 08:06:53;;;;;;;;;;;;;;;1.64;88.20;101106.44;4959623;28;1206;-93
2022/01/16 08:09:18;;;;;;;;;;;;;;;1.59;88.39;101101.66;4959691;28;1278;-91
2022/01/16 08:11:43;;;;;;;;;;;;;;;1.62;88.33;101092.31;4960421;28;1362;-92
2022/01/16 08:14:09;;;;;;;;;;;;;;;1.62;87.90;101085.06;4960190;28;985;-92
2022/01/16 08:16:34;;;;;;;;;;;;;;;1.68;88.04;101084.25;4959703;28;1194;-89
2022/01/16 08:18:59;;;;;;;;;;;;;;;1.66;87.88;101080.91;4976427;28;1945;-91
2022/01/16 08:21:24;;;;;;;;;;;;;;;1.68;87.86;101076.16;4959271;28;1206;-91
2022/01/16 08:23:49;;;;;;;;;;;;;;;1.65;87.94;101075.72;4959243;28;982;-92
2022/01/16 08:26:14;;;;;;;;;;;;;;;1.65;88.02;101078.41;4959339;28;1383;-92
2022/01/16 08:28:40;;;;;;;;;;;;;;;1.59;87.86;101066.59;4959686;28;1190;-92
2022/01/16 08:31:05;;;;;;;;;;;;;;;1.56;88.09;101075.09;4959320;28;1269;-91
2022/01/16 08:33:30;;;;;;;;;;;;;;;1.64;88.12;101069.50;4976863;28;1087;-91
2022/01/16 08:35:55;;;;;;;;;;;;;;;1.69;88.09;101063.50;4959263;28;1764;-92
2022/01/16 08:38:21;;;;;;;;;;;;;;;1.72;88.20;101050.38;4959326;28;1902;-92
2022/01/16 08:40:46;;;;;;;;;;;;;;;1.76;87.97;101058.91;4974993;28;1281;-92
2022/01/16 08:43:11;;;;;;;;;;;;;;;1.72;87.77;101058.47;4975126;28;886;-92
2022/01/16 08:45:37;;;;;;;;;;;;;;;1.72;87.83;101057.66;4974979;28;1505;-91
2022/01/16 08:48:02;;;;;;;;;;;;;;;1.74;88.09;101067.22;4959637;28;1170;-92
2022/01/16 08:50:28;;;;;;;;;;;;;;;1.73;87.89;101062.84;4959131;28;1300;-92
2022/01/16 08:52:53;;;;;;;;;;;;;;;1.71;88.17;101073.00;4958500;28;1498;-92
2022/01/16 08:55:24;;;;;;;;;;;;;;;1.72;87.85;101068.44;4958926;28;1513;-92
2022/01/16 08:57:50;;;;;;;;;;;;;;;1.75;87.74;101060.78;4959097;28;1898;-89
2022/01/16 09:00:15;;;;;;;;;;;;;;;1.75;87.70;101068.88;4958471;28;1221;-89
2022/01/16 09:02:41;;;;;;;;;;;;;;;1.77;87.67;101065.97;4958291;28;1632;-88
2022/01/16 09:05:06;;;;;;;;;;;;;;;1.79;87.84;101072.78;4958672;28;1538;-92
2022/01/16 09:07:32;;;;;;;;;;;;;;;1.80;87.91;101071.75;4958620;28;1305;-91
2022/01/16 09:09:59;;;;;;;;;;;;;;;1.82;87.62;101069.69;4957646;28;1399;-93
2022/01/16 09:22:39;;;;;;;;;;;;;;;1.78;87.48;101075.72;5013293;28;1261;-91
2022/01/16 09:25:11;;;;;;;;;;;;;;;1.77;87.64;101068.66;4997843;28;1201;-92
2022/01/16 09:27:37;;;;;;;;;;;;;;;1.82;87.72;101076.97;4997212;28;1390;-93
2022/01/16 09:30:04;;;;;;;;;;;;;;;1.80;87.53;101081.72;4997674;28;1288;-90
2022/01/16 09:33:04;;;;;;;;;;;;;;;1.78;87.89;101084.66;4976186;28;1501;-89
2022/01/16 09:35:34;;;;;;;;;;;;;;;1.80;87.78;101087.13;4972066;28;1318;-90
2022/01/16 09:38:09;;;;;;;;;;;;;;;1.79;87.68;101088.16;4961662;28;1910;-90
2022/01/16 09:41:04;;;;;;;;;;;;;;;1.81;87.89;101089.63;4959299;28;1316;-91
2022/01/16 09:43:32;;;;;;;;;;;;;;;1.79;88.00;101085.47;4977226;28;1747;-90
2022/01/16 09:45:58;;;;;;;;;;;;;;;1.83;88.12;101087.53;4995275;28;1711;-90
2022/01/16 09:48:23;;;;;;;;;;;;;;;1.87;87.82;101094.16;4974759;28;1591;-89
2022/01/16 09:50:48;;;;;;;;;;;;;;;1.87;88.26;101099.56;4986444;28;1596;-90
2022/01/16 09:53:14;;;;;;;;;;;;;;;1.90;87.93;101098.34;4958660;28;1058;-89
2022/01/16 09:55:39;;;;;;;;;;;;;;;1.88;87.94;101090.44;4958690;28;1174;-92
2022/01/16 09:58:04;;;;;;;;;;;;;;;1.88;88.43;101086.91;4992114;28;1947;-93
2022/01/16 10:00:30;;;;;;;;;;;;;;;1.93;88.06;101086.28;4977711;28;1605;-92
2022/01/16 10:02:55;;;;;;;;;;;;;;;1.98;88.08;101078.38;4977300;28;1938;-92
2022/01/16 10:05:25;;;;;;;;;;;;;;;1.96;88.44;101096.69;4975049;28;1305;-90
2022/01/16 10:07:50;;;;;;;;;;;;;;;1.97;88.36;101092.91;4958277;28;1178;-89
2022/01/16 10:10:16;;;;;;;;;;;;;;;1.94;88.74;101093.34;4968248;28;1388;-89
2022/01/16 10:12:48;;;;;;;;;;;;;;;1.94;88.61;101099.59;4977974;28;1256;-89
2022/01/16 10:15:17;;;;;;;;;;;;;;;1.99;88.74;101096.25;4978017;28;1345;-89
2022/01/16 10:17:48;;;;;;;;;;;;;;;1.97;88.75;101103.72;4974085;28;1960;-89
2022/01/16 10:20:16;;;;;;;;;;;;;;;1.94;88.86;101105.00;4967391;28;1882;-89
2022/01/16 10:22:46;;;;;;;;;;;;;;;1.92;88.77;101107.06;4980490;28;1202;-88
2022/01/16 10:25:13;;;;;;;;;;;;;;;1.93;88.93;101102.50;4981777;28;1359;-91
2022/01/16 10:27:39;;;;;;;;;;;;;;;1.92;88.94;101112.47;4977790;28;1232;-90
2022/01/16 10:30:07;;;;;;;;;;;;;;;1.94;89.23;101110.38;4973474;28;1371;-89
2022/01/16 10:32:35;;;;;;;;;;;;;;;1.96;89.40;101104.78;4977050;28;1347;-89
2022/01/16 10:35:06;;;;;;;;;;;;;;;1.92;89.28;101109.75;4973378;28;1575;-89
2022/01/16 10:37:32;;;;;;;;;;;;;;;1.93;90.12;101110.59;4978772;28;1902;-92
2022/01/16 10:39:57;;;;;;;;;;;;;;;1.99;90.19;101107.03;4972861;28;2155;-90
2022/01/16 23:44:41;;;;;;;;;;;;;;;4.19;93.25;101457.63;5015386;28;1660;-90
2022/01/16 23:47:06;;;;;;;;;;;;;;;4.18;93.58;101462.22;4997813;28;1273;-90
2022/01/16 23:49:31;;;;;;;;;;;;;;;4.14;93.52;101457.47;4979662;28;943;-90
2022/01/16 23:51:56;;;;;;;;;;;;;;;4.14;93.31;101455.59;4979432;28;1173;-89
2022/01/16 23:54:21;;;;;;;;;;;;;;;4.16;93.54;101452.66;4969059;28;1822;-90
2022/01/16 23:56:47;;;;;;;;;;;;;;;4.23;93.29;101458.88;4960280;28;1344;-90
2022/01/16 23:59:12;;;;;;;;;;;;;;;4.21;93.47;101460.13;4970767;28;1912;-90
